Flight Track Log - Related Links

Times and Time Zones

All times are in EDT time to prevent confusion due to time zone crossing. See the AWE1936 flight status page for this flight to view local times or setup timezone preferences in your user account.

Time Position Orientation Groundspeed Altitude Reporting Facility
EDT Latitude Longitude Course Direction KTS MPH feet Rate Location/Type
Tue 12:11:05 PM 35.1950 -80.9331 30° Northeast 176 203 1,600  Level Atlanta Center
Tue 12:11:30 PM 35.1761 -80.9361 188° South 168 193 2,400 2,118 Climbing Atlanta Center
Tue 12:12:30 PM 35.1189 -80.8978 151° Southeast 244 281 4,600 2,521 Climbing Atlanta Center
Tue 12:13:29 PM 35.0897 -80.8228 115° Southeast 265 305 7,400 2,852 Climbing Atlanta Center
Tue 12:13:31 PM 35.0919 -80.8200 46° Northeast 280 322 7,500 2,000 Climbing Atlanta Center
Tue 12:14:29 PM 35.1272 -80.7400 62° Northeast 274 315 9,400 1,729 Climbing Atlanta Center
Tue 12:15:00 PM 35.2261 -80.5481 30° Northeast  Level FlightAware Approximate
Tue 12:15:29 PM 35.1789 -80.6464 56° Northeast 309 356 10,900  Level Atlanta Center
Tue 12:16:00 PM 35.3057 -80.4912 30° Northeast  Level FlightAware Approximate
Tue 12:16:29 PM 35.2344 -80.5400 57° Northeast 347 399 13,800  Level Atlanta Center
Tue 12:17:29 PM 35.2917 -80.4281 58° Northeast 375 432 16,500 2,521 Climbing Atlanta Center
Tue 12:19:18 PM 35.4033 -80.2119 58° Northeast 420 483 20,900 2,246 Climbing Washington Center
Tue 12:20:20 PM 35.4503 -80.0744 67° East 431 496 22,900 1,770 Climbing Washington Center
Tue 12:21:20 PM 35.4867 -79.9386 72° East 445 512 24,500 1,795 Climbing Washington Center
Tue 12:22:17 PM 35.5278 -79.7828 72° East 460 529 26,400 1,831 Climbing Washington Center
Tue 12:23:18 PM 35.5664 -79.6264 73° East 473 544 28,100 1,587 Climbing Washington Center
Tue 12:24:18 PM 35.6142 -79.4475 72° East 493 567 29,600 1,190 Climbing Washington Center
Tue 12:25:19 PM 35.6686 -79.3019 65° Northeast 499 574 30,500 689 Climbing Washington Center
Tue 12:26:20 PM 35.7606 -79.1653 50° Northeast 512 589 31,000 248 Climbing Washington Center
Tue 12:27:20 PM 35.8800 -79.0808 30° Northeast 487 560 31,000  Level Washington Center
Tue 12:28:18 PM 35.9994 -78.9911 31° Northeast 493 567 31,000  Level Washington Center
Tue 12:29:20 PM 36.1186 -78.9039 31° Northeast 498 573 31,000  Level Washington Center
Tue 12:30:18 PM 36.2381 -78.8136 31° Northeast 498 573 31,000  Level Washington Center
Tue 12:31:18 PM 36.3592 -78.7258 30° Northeast 503 579 31,000  Level Washington Center
Tue 12:32:19 PM 36.4783 -78.6375 31° Northeast 503 579 31,000  Level Washington Center
Tue 12:33:20 PM 36.5975 -78.5464 32° Northeast 503 579 31,000  Level Washington Center
Tue 12:34:20 PM 36.7292 -78.4453 32° Northeast 503 579 31,000  Level Washington Center
Tue 12:35:18 PM 36.8481 -78.3561 31° Northeast 503 579 31,000  Level Washington Center
Tue 12:36:20 PM 36.9650 -78.2642 32° Northeast 497 572 31,000  Level Washington Center
Tue 12:37:18 PM 37.0858 -78.1744 31° Northeast 502 578 31,000  Level Washington Center
Tue 12:38:18 PM 37.2047 -78.0822 32° Northeast 502 578 31,000  Level Washington Center
Tue 12:39:20 PM 37.3233 -77.9894 32° Northeast 502 578 31,000  Level Washington Center
Tue 12:40:17 PM 37.4442 -77.8964 31° Northeast 502 578 31,000  Level Washington Center
Tue 12:41:18 PM 37.5606 -77.8003 33° Northeast 502 578 31,000  Level Washington Center
Tue 12:42:18 PM 37.6750 -77.6961 36° Northeast 502 578 31,000  Level Washington Center
Tue 12:43:19 PM 37.7917 -77.5917 35° Northeast 507 583 31,000  Level Washington Center
Tue 12:44:19 PM 37.9081 -77.4867 35° Northeast 507 583 31,000  Level Washington Center
Tue 12:45:19 PM 38.0117 -77.3969 34° Northeast 507 583 31,000  Level Washington Center
Tue 12:46:17 PM 38.1317 -77.3103 30° Northeast 502 578 31,000  Level Washington Center
Tue 12:47:18 PM 38.2600 -77.2444 22° Northeast 490 564 31,000  Level Washington Center
Tue 12:48:19 PM 38.3839 -77.1783 23° Northeast 485 558 31,000  Level Washington Center
Tue 12:49:20 PM 38.5039 -77.0828 32° Northeast 485 558 31,000  Level Washington Center
Tue 12:50:20 PM 38.6033 -76.9544 45° Northeast 496 571 31,000  Level Washington Center
Tue 12:51:18 PM 38.7047 -76.8233 45° Northeast 502 578 31,000  Level Washington Center
Tue 12:52:18 PM 38.8061 -76.6919 45° Northeast 509 586 31,000 -50 Level Washington Center
Tue 12:53:18 PM 38.9200 -76.5442 45° Northeast 519 597 30,900 -595 Descending Washington Center
Tue 12:54:19 PM 39.0211 -76.4119 45° Northeast 519 597 29,800 -1,041 Descending Washington Center
Tue 12:55:19 PM 39.1219 -76.2872 44° Northeast 512 589 28,800 -992 Descending Washington Center
Tue 12:56:20 PM 39.2267 -76.1542 45° Northeast 507 583 27,800 -908 Descending Washington Center
Tue 12:57:18 PM 39.3231 -76.0317 44° Northeast 502 578 27,000 -712 Descending Washington Center
Tue 12:58:18 PM 39.4214 -75.9139 43° Northeast 491 565 26,400 -744 Descending Washington Center
Tue 12:59:19 PM 39.5258 -75.7906 42° Northeast 491 565 25,500 -1,388 Descending Washington Center
Tue 01:00:19 PM 39.6303 -75.6669 42° Northeast 496 571 23,600 -2,269 Descending Washington Center
Tue 01:01:18 PM 39.7303 -75.5483 42° Northeast 496 571 21,000 -2,900 Descending Washington Center
Tue 01:02:19 PM 39.8239 -75.4322 44° Northeast 486 559 17,800 -2,420 Descending Washington Center
Tue 01:03:17 PM 39.9050 -75.3372 42° Northeast 458 527 16,200 -1,513 Descending Washington Center
Tue 01:04:18 PM 39.9839 -75.2394 44° Northeast 422 486 14,800 -1,728 Descending Washington Center
Tue 01:06:21 PM 40.1500 -75.0333 43° Northeast 335 386 10,900 -1,593 Descending New York TRACON
Tue 01:07:15 PM 40.2000 -74.9667 46° Northeast 283 326 10,100 -1,050 Descending New York TRACON
Tue 01:08:21 PM 40.2667 -74.9000 37° Northeast 283 326 8,800 -1,000 Descending New York TRACON
Tue 01:09:15 PM 40.3000 -74.8333 57° Northeast 275 316 8,100 -1,053 Descending New York TRACON
Tue 01:10:15 PM 40.3500 -74.7667 45° Northeast 275 316 6,800 -952 Descending New York TRACON
Tue 01:11:21 PM 40.4167 -74.6833 44° Northeast 256 295 6,100 -750 Descending New York TRACON
Tue 01:12:15 PM 40.4500 -74.6167 57° Northeast 240 276 5,300 -526 Descending New York TRACON
Tue 01:13:15 PM 40.4833 -74.5667 49° Northeast 251 289 5,100 -105 Descending New York TRACON
Tue 01:14:09 PM 40.5500 -74.5833 349° North 244 281 5,100  Level New York TRACON
Tue 01:15:15 PM 40.6167 -74.6000 349° North 236 272 5,100  Level New York TRACON
Tue 01:16:15 PM 40.6833 -74.6167 349° North 240 276 5,100  Level New York TRACON
Tue 01:17:21 PM 40.7667 -74.6000 North 236 272 5,100  Level New York TRACON
Tue 01:18:15 PM 40.8167 -74.5833 14° North 237 273 5,100  Level New York TRACON
Tue 01:19:15 PM 40.8667 -74.5500 27° Northeast 237 273 5,100  Level New York TRACON
Tue 01:20:15 PM 40.9167 -74.4833 45° Northeast 239 275 5,100 -50 Level New York TRACON
Tue 01:21:15 PM 40.9500 -74.4167 56° Northeast 239 275 5,000  Descending New York TRACON
Tue 01:22:15 PM 40.9667 -74.3333 75° East 223 257 5,100 -450 Climbing New York TRACON
Tue 01:23:15 PM 40.9667 -74.2500 90° East 216 249 4,100 -550 Descending New York TRACON
Tue 01:24:15 PM 40.9667 -74.1833 90° East 181 208 4,000 -48 Descending New York TRACON
Tue 01:25:21 PM 40.9333 -74.1333 131° Southeast 170 196 4,000 -450 Level New York TRACON
Tue 01:26:15 PM 40.9167 -74.0833 114° Southeast 163 188 3,100 -526 Descending New York TRACON
Tue 01:27:15 PM 40.8667 -74.0833 180° South 161 185 3,000  Descending New York TRACON
Tue 01:28:15 PM 40.8333 -74.0833 180° South 163 188 3,100 -450 Climbing New York TRACON
Tue 01:29:15 PM 40.7833 -74.1000 194° South 159 183 2,100 -850 Descending New York TRACON
Tue 01:30:15 PM 40.7500 -74.1333 217° Southwest 131 151 1,400 -750 Descending New York TRACON
Tue 01:31:15 PM 40.7167 -74.1500 201° Southwest 137 158 600 -800 Descending New York TRACON

Login

Don't have an account? Register now (free) for customized features, flight alerts, and more!